sensor_id;sensor_type;location;lat;lon;timestamp;P1;durP1;ratioP1;P2;durP2;ratioP2
21032;SDS011;10675;47.976;7.824;2022-12-10T00:00:32;13.57;;;7.80;;
21032;SDS011;10675;47.976;7.824;2022-12-10T00:02:58;17.43;;;9.43;;
21032;SDS011;10675;47.976;7.824;2022-12-10T00:05:24;14.50;;;8.10;;
21032;SDS011;10675;47.976;7.824;2022-12-10T00:07:49;20.07;;;8.57;;
21032;SDS011;10675;47.976;7.824;2022-12-10T00:10:15;17.03;;;8.60;;
21032;SDS011;10675;47.976;7.824;2022-12-10T00:12:40;16.27;;;8.13;;
21032;SDS011;10675;47.976;7.824;2022-12-10T00:15:06;15.13;;;7.93;;
21032;SDS011;10675;47.976;7.824;2022-12-10T00:17:32;13.00;;;7.63;;
21032;SDS011;10675;47.976;7.824;2022-12-10T00:19:58;15.47;;;8.53;;
21032;SDS011;10675;47.976;7.824;2022-12-10T00:22:23;13.90;;;8.27;;
21032;SDS011;10675;47.976;7.824;2022-12-10T00:24:49;15.60;;;9.13;;
21032;SDS011;10675;47.976;7.824;2022-12-10T00:27:14;14.90;;;8.53;;
21032;SDS011;10675;47.976;7.824;2022-12-10T00:29:40;18.07;;;9.43;;
21032;SDS011;10675;47.976;7.824;2022-12-10T00:32:06;17.17;;;8.43;;
21032;SDS011;10675;47.976;7.824;2022-12-10T00:34:31;18.60;;;8.83;;
21032;SDS011;10675;47.976;7.824;2022-12-10T00:36:57;15.83;;;8.87;;
21032;SDS011;10675;47.976;7.824;2022-12-10T00:39:22;18.83;;;9.00;;
21032;SDS011;10675;47.976;7.824;2022-12-10T00:41:48;18.57;;;8.80;;
21032;SDS011;10675;47.976;7.824;2022-12-10T00:44:14;13.97;;;8.67;;
21032;SDS011;10675;47.976;7.824;2022-12-10T00:46:40;13.57;;;8.17;;
21032;SDS011;10675;47.976;7.824;2022-12-10T00:49:06;19.27;;;9.10;;
21032;SDS011;10675;47.976;7.824;2022-12-10T00:51:32;11.60;;;7.50;;
21032;SDS011;10675;47.976;7.824;2022-12-10T00:53:58;16.80;;;8.07;;
21032;SDS011;10675;47.976;7.824;2022-12-10T00:56:28;15.53;;;7.77;;
21032;SDS011;10675;47.976;7.824;2022-12-10T00:58:55;16.07;;;9.00;;
21032;SDS011;10675;47.976;7.824;2022-12-10T01:03:50;15.53;;;9.13;;
21032;SDS011;10675;47.976;7.824;2022-12-10T01:06:22;16.57;;;9.07;;
21032;SDS011;10675;47.976;7.824;2022-12-10T01:08:57;15.50;;;8.60;;
21032;SDS011;10675;47.976;7.824;2022-12-10T01:11:26;13.60;;;8.50;;
21032;SDS011;10675;47.976;7.824;2022-12-10T01:13:57;13.73;;;8.00;;
21032;SDS011;10675;47.976;7.824;2022-12-10T01:16:23;16.20;;;7.30;;
21032;SDS011;10675;47.976;7.824;2022-12-10T01:18:49;17.00;;;8.23;;
21032;SDS011;10675;47.976;7.824;2022-12-10T01:21:16;20.97;;;9.03;;
21032;SDS011;10675;47.976;7.824;2022-12-10T01:23:44;21.60;;;9.33;;
21032;SDS011;10675;47.976;7.824;2022-12-10T01:26:13;16.80;;;8.87;;
21032;SDS011;10675;47.976;7.824;2022-12-10T01:28:41;16.93;;;9.23;;
21032;SDS011;10675;47.976;7.824;2022-12-10T01:31:09;14.03;;;8.20;;
21032;SDS011;10675;47.976;7.824;2022-12-10T01:33:36;15.00;;;8.50;;
21032;SDS011;10675;47.976;7.824;2022-12-10T01:36:03;15.37;;;7.97;;
21032;SDS011;10675;47.976;7.824;2022-12-10T01:38:30;14.47;;;8.30;;
21032;SDS011;10675;47.976;7.824;2022-12-10T01:40:56;19.13;;;8.23;;
21032;SDS011;10675;47.976;7.824;2022-12-10T01:43:23;18.00;;;9.07;;
21032;SDS011;10675;47.976;7.824;2022-12-10T01:45:48;18.83;;;10.10;;
21032;SDS011;10675;47.976;7.824;2022-12-10T01:48:14;18.43;;;10.27;;
21032;SDS011;10675;47.976;7.824;2022-12-10T01:50:40;18.93;;;9.93;;
21032;SDS011;10675;47.976;7.824;2022-12-10T01:53:05;17.10;;;9.30;;
21032;SDS011;10675;47.976;7.824;2022-12-10T01:55:48;14.77;;;8.60;;
21032;SDS011;10675;47.976;7.824;2022-12-10T01:58:16;14.07;;;7.77;;
21032;SDS011;10675;47.976;7.824;2022-12-10T02:00:57;15.03;;;8.40;;
21032;SDS011;10675;47.976;7.824;2022-12-10T02:09:05;11.90;;;7.60;;
21032;SDS011;10675;47.976;7.824;2022-12-10T02:12:32;19.47;;;9.23;;
21032;SDS011;10675;47.976;7.824;2022-12-10T02:17:34;12.87;;;7.43;;
21032;SDS011;10675;47.976;7.824;2022-12-10T02:20:37;16.20;;;7.93;;
21032;SDS011;10675;47.976;7.824;2022-12-10T02:23:09;16.10;;;8.90;;
21032;SDS011;10675;47.976;7.824;2022-12-10T02:25:43;20.73;;;8.77;;
21032;SDS011;10675;47.976;7.824;2022-12-10T02:31:18;19.50;;;8.70;;
21032;SDS011;10675;47.976;7.824;2022-12-10T02:33:48;13.37;;;7.53;;
21032;SDS011;10675;47.976;7.824;2022-12-10T02:36:16;15.47;;;8.87;;
21032;SDS011;10675;47.976;7.824;2022-12-10T02:38:44;14.70;;;7.73;;
21032;SDS011;10675;47.976;7.824;2022-12-10T02:41:13;13.83;;;7.60;;
21032;SDS011;10675;47.976;7.824;2022-12-10T02:44:07;15.63;;;8.17;;
21032;SDS011;10675;47.976;7.824;2022-12-10T02:46:36;16.07;;;8.50;;
21032;SDS011;10675;47.976;7.824;2022-12-10T02:49:03;15.33;;;8.17;;
21032;SDS011;10675;47.976;7.824;2022-12-10T02:51:32;15.83;;;8.07;;
21032;SDS011;10675;47.976;7.824;2022-12-10T02:53:58;18.53;;;8.63;;
21032;SDS011;10675;47.976;7.824;2022-12-10T02:56:31;17.43;;;8.97;;
21032;SDS011;10675;47.976;7.824;2022-12-10T02:59:04;15.07;;;8.33;;
21032;SDS011;10675;47.976;7.824;2022-12-10T03:04:45;13.87;;;7.37;;
21032;SDS011;10675;47.976;7.824;2022-12-10T03:11:05;15.57;;;7.40;;
21032;SDS011;10675;47.976;7.824;2022-12-10T03:13:57;15.57;;;7.73;;
21032;SDS011;10675;47.976;7.824;2022-12-10T03:16:28;13.30;;;7.47;;
21032;SDS011;10675;47.976;7.824;2022-12-10T03:19:00;16.03;;;8.17;;
21032;SDS011;10675;47.976;7.824;2022-12-10T03:21:29;17.23;;;8.17;;
21032;SDS011;10675;47.976;7.824;2022-12-10T03:23:57;17.17;;;8.13;;
21032;SDS011;10675;47.976;7.824;2022-12-10T03:26:23;13.53;;;7.80;;
21032;SDS011;10675;47.976;7.824;2022-12-10T03:28:50;15.43;;;8.40;;
21032;SDS011;10675;47.976;7.824;2022-12-10T03:31:22;11.20;;;7.40;;
21032;SDS011;10675;47.976;7.824;2022-12-10T03:33:48;16.10;;;8.27;;
21032;SDS011;10675;47.976;7.824;2022-12-10T03:36:14;13.20;;;7.80;;
21032;SDS011;10675;47.976;7.824;2022-12-10T03:38:41;12.43;;;7.47;;
21032;SDS011;10675;47.976;7.824;2022-12-10T03:41:08;20.53;;;8.13;;
21032;SDS011;10675;47.976;7.824;2022-12-10T03:43:34;16.53;;;8.60;;
21032;SDS011;10675;47.976;7.824;2022-12-10T03:46:00;18.03;;;8.73;;
21032;SDS011;10675;47.976;7.824;2022-12-10T03:48:25;17.37;;;9.17;;
21032;SDS011;10675;47.976;7.824;2022-12-10T03:50:51;13.50;;;7.13;;
21032;SDS011;10675;47.976;7.824;2022-12-10T03:53:16;14.47;;;8.70;;
21032;SDS011;10675;47.976;7.824;2022-12-10T03:55:42;16.00;;;8.50;;
21032;SDS011;10675;47.976;7.824;2022-12-10T03:58:08;19.47;;;7.97;;
21032;SDS011;10675;47.976;7.824;2022-12-10T04:00:33;22.13;;;8.00;;
21032;SDS011;10675;47.976;7.824;2022-12-10T04:02:59;17.67;;;9.00;;
21032;SDS011;10675;47.976;7.824;2022-12-10T04:05:24;15.10;;;8.00;;
21032;SDS011;10675;47.976;7.824;2022-12-10T04:07:50;14.07;;;9.47;;
21032;SDS011;10675;47.976;7.824;2022-12-10T04:10:16;13.33;;;8.00;;
21032;SDS011;10675;47.976;7.824;2022-12-10T04:12:41;13.33;;;6.67;;
21032;SDS011;10675;47.976;7.824;2022-12-10T04:15:07;16.23;;;8.30;;
21032;SDS011;10675;47.976;7.824;2022-12-10T04:17:51;16.53;;;8.23;;
21032;SDS011;10675;47.976;7.824;2022-12-10T04:20:17;15.60;;;8.67;;
21032;SDS011;10675;47.976;7.824;2022-12-10T04:23:01;16.47;;;8.47;;
21032;SDS011;10675;47.976;7.824;2022-12-10T04:25:45;13.23;;;7.73;;
21032;SDS011;10675;47.976;7.824;2022-12-10T04:28:30;15.10;;;7.80;;
21032;SDS011;10675;47.976;7.824;2022-12-10T04:30:55;17.33;;;8.53;;
21032;SDS011;10675;47.976;7.824;2022-12-10T04:33:21;14.40;;;7.60;;
21032;SDS011;10675;47.976;7.824;2022-12-10T04:35:46;13.03;;;7.50;;
21032;SDS011;10675;47.976;7.824;2022-12-10T04:38:12;12.27;;;7.07;;
21032;SDS011;10675;47.976;7.824;2022-12-10T04:40:38;14.67;;;8.27;;
21032;SDS011;10675;47.976;7.824;2022-12-10T04:43:03;15.30;;;7.33;;
21032;SDS011;10675;47.976;7.824;2022-12-10T04:45:29;14.53;;;8.43;;
21032;SDS011;10675;47.976;7.824;2022-12-10T04:47:54;13.10;;;8.43;;
21032;SDS011;10675;47.976;7.824;2022-12-10T04:50:20;14.63;;;7.77;;
21032;SDS011;10675;47.976;7.824;2022-12-10T04:52:45;12.10;;;7.13;;
21032;SDS011;10675;47.976;7.824;2022-12-10T04:55:11;12.07;;;7.43;;
21032;SDS011;10675;47.976;7.824;2022-12-10T04:57:36;15.37;;;8.67;;
21032;SDS011;10675;47.976;7.824;2022-12-10T05:00:02;14.37;;;7.93;;
21032;SDS011;10675;47.976;7.824;2022-12-10T05:02:28;12.10;;;8.23;;
21032;SDS011;10675;47.976;7.824;2022-12-10T05:04:54;14.53;;;8.40;;
21032;SDS011;10675;47.976;7.824;2022-12-10T05:07:19;11.90;;;7.70;;
21032;SDS011;10675;47.976;7.824;2022-12-10T05:09:45;16.33;;;8.27;;
21032;SDS011;10675;47.976;7.824;2022-12-10T05:12:10;11.77;;;7.20;;
21032;SDS011;10675;47.976;7.824;2022-12-10T05:14:36;15.07;;;7.70;;
21032;SDS011;10675;47.976;7.824;2022-12-10T05:17:02;15.40;;;8.17;;
21032;SDS011;10675;47.976;7.824;2022-12-10T05:19:27;15.17;;;8.50;;
21032;SDS011;10675;47.976;7.824;2022-12-10T05:21:53;14.37;;;7.80;;
21032;SDS011;10675;47.976;7.824;2022-12-10T05:24:37;16.63;;;8.67;;
21032;SDS011;10675;47.976;7.824;2022-12-10T05:27:03;14.53;;;7.70;;
21032;SDS011;10675;47.976;7.824;2022-12-10T05:29:28;14.43;;;7.93;;
21032;SDS011;10675;47.976;7.824;2022-12-10T05:31:54;19.77;;;8.90;;
21032;SDS011;10675;47.976;7.824;2022-12-10T05:34:20;12.37;;;8.00;;
21032;SDS011;10675;47.976;7.824;2022-12-10T05:36:46;14.60;;;8.07;;
21032;SDS011;10675;47.976;7.824;2022-12-10T05:39:11;14.77;;;8.47;;
21032;SDS011;10675;47.976;7.824;2022-12-10T05:41:37;12.47;;;7.87;;
21032;SDS011;10675;47.976;7.824;2022-12-10T05:44:04;14.87;;;8.57;;
21032;SDS011;10675;47.976;7.824;2022-12-10T05:46:31;16.47;;;8.03;;
21032;SDS011;10675;47.976;7.824;2022-12-10T05:48:59;14.20;;;8.00;;
21032;SDS011;10675;47.976;7.824;2022-12-10T05:51:27;15.90;;;8.90;;
21032;SDS011;10675;47.976;7.824;2022-12-10T05:53:54;13.40;;;8.27;;
21032;SDS011;10675;47.976;7.824;2022-12-10T05:56:22;15.37;;;6.93;;
21032;SDS011;10675;47.976;7.824;2022-12-10T05:58:49;15.30;;;8.43;;
21032;SDS011;10675;47.976;7.824;2022-12-10T06:01:21;15.77;;;7.97;;
21032;SDS011;10675;47.976;7.824;2022-12-10T06:03:48;13.77;;;7.90;;
21032;SDS011;10675;47.976;7.824;2022-12-10T06:06:23;15.67;;;7.67;;
21032;SDS011;10675;47.976;7.824;2022-12-10T06:08:54;14.00;;;8.27;;
21032;SDS011;10675;47.976;7.824;2022-12-10T06:11:21;21.73;;;8.50;;
21032;SDS011;10675;47.976;7.824;2022-12-10T06:13:47;16.30;;;8.07;;
21032;SDS011;10675;47.976;7.824;2022-12-10T06:16:13;15.90;;;8.17;;
21032;SDS011;10675;47.976;7.824;2022-12-10T06:18:41;17.17;;;8.07;;
21032;SDS011;10675;47.976;7.824;2022-12-10T06:21:08;16.53;;;8.73;;
21032;SDS011;10675;47.976;7.824;2022-12-10T06:23:36;14.60;;;7.40;;
21032;SDS011;10675;47.976;7.824;2022-12-10T06:26:03;14.00;;;8.23;;
21032;SDS011;10675;47.976;7.824;2022-12-10T06:28:30;16.30;;;8.00;;
21032;SDS011;10675;47.976;7.824;2022-12-10T06:30:57;14.00;;;7.93;;
21032;SDS011;10675;47.976;7.824;2022-12-10T06:33:24;12.67;;;7.60;;
21032;SDS011;10675;47.976;7.824;2022-12-10T06:35:49;14.13;;;8.10;;
21032;SDS011;10675;47.976;7.824;2022-12-10T06:38:15;11.73;;;8.10;;
21032;SDS011;10675;47.976;7.824;2022-12-10T06:40:40;15.00;;;8.23;;
21032;SDS011;10675;47.976;7.824;2022-12-10T06:43:06;13.47;;;7.60;;
21032;SDS011;10675;47.976;7.824;2022-12-10T06:45:31;14.70;;;8.20;;
21032;SDS011;10675;47.976;7.824;2022-12-10T06:47:57;15.60;;;7.73;;
21032;SDS011;10675;47.976;7.824;2022-12-10T06:50:23;16.87;;;8.53;;
21032;SDS011;10675;47.976;7.824;2022-12-10T06:52:49;12.67;;;7.43;;
21032;SDS011;10675;47.976;7.824;2022-12-10T06:55:16;13.33;;;7.97;;
21032;SDS011;10675;47.976;7.824;2022-12-10T06:57:41;16.20;;;8.37;;
21032;SDS011;10675;47.976;7.824;2022-12-10T07:00:07;16.00;;;9.00;;
21032;SDS011;10675;47.976;7.824;2022-12-10T07:02:33;14.83;;;7.50;;
21032;SDS011;10675;47.976;7.824;2022-12-10T07:04:59;15.47;;;7.80;;
21032;SDS011;10675;47.976;7.824;2022-12-10T07:07:25;16.43;;;8.53;;
21032;SDS011;10675;47.976;7.824;2022-12-10T07:09:51;13.77;;;8.30;;
21032;SDS011;10675;47.976;7.824;2022-12-10T07:12:16;14.40;;;7.20;;
21032;SDS011;10675;47.976;7.824;2022-12-10T07:14:42;14.17;;;7.70;;
21032;SDS011;10675;47.976;7.824;2022-12-10T07:17:07;15.40;;;7.27;;
21032;SDS011;10675;47.976;7.824;2022-12-10T07:19:33;14.10;;;7.70;;
21032;SDS011;10675;47.976;7.824;2022-12-10T07:21:58;14.37;;;7.57;;
21032;SDS011;10675;47.976;7.824;2022-12-10T07:24:24;13.83;;;7.70;;
21032;SDS011;10675;47.976;7.824;2022-12-10T07:26:49;13.87;;;7.57;;
21032;SDS011;10675;47.976;7.824;2022-12-10T07:29:17;14.13;;;7.93;;
21032;SDS011;10675;47.976;7.824;2022-12-10T07:31:45;11.00;;;6.60;;
21032;SDS011;10675;47.976;7.824;2022-12-10T07:34:11;11.47;;;6.40;;
21032;SDS011;10675;47.976;7.824;2022-12-10T07:36:37;13.93;;;7.20;;
21032;SDS011;10675;47.976;7.824;2022-12-10T07:39:06;12.10;;;6.70;;
21032;SDS011;10675;47.976;7.824;2022-12-10T07:41:33;12.30;;;6.67;;
21032;SDS011;10675;47.976;7.824;2022-12-10T07:44:00;11.10;;;6.60;;
21032;SDS011;10675;47.976;7.824;2022-12-10T07:46:28;11.00;;;6.57;;
21032;SDS011;10675;47.976;7.824;2022-12-10T07:48:55;10.93;;;6.40;;
21032;SDS011;10675;47.976;7.824;2022-12-10T07:51:21;9.50;;;6.20;;
21032;SDS011;10675;47.976;7.824;2022-12-10T07:53:47;9.83;;;5.93;;
21032;SDS011;10675;47.976;7.824;2022-12-10T07:56:15;16.57;;;7.40;;
21032;SDS011;10675;47.976;7.824;2022-12-10T07:58:42;11.33;;;6.10;;
21032;SDS011;10675;47.976;7.824;2022-12-10T08:01:09;10.27;;;6.83;;
21032;SDS011;10675;47.976;7.824;2022-12-10T08:03:36;10.10;;;5.83;;
21032;SDS011;10675;47.976;7.824;2022-12-10T08:06:03;13.47;;;7.07;;
21032;SDS011;10675;47.976;7.824;2022-12-10T08:08:30;12.57;;;6.47;;
21032;SDS011;10675;47.976;7.824;2022-12-10T08:10:58;11.53;;;6.23;;
21032;SDS011;10675;47.976;7.824;2022-12-10T08:13:25;15.83;;;7.03;;
21032;SDS011;10675;47.976;7.824;2022-12-10T08:15:50;11.73;;;6.77;;
21032;SDS011;10675;47.976;7.824;2022-12-10T08:18:16;16.77;;;7.27;;
21032;SDS011;10675;47.976;7.824;2022-12-10T08:20:42;13.03;;;7.63;;
21032;SDS011;10675;47.976;7.824;2022-12-10T08:23:07;14.20;;;7.13;;
21032;SDS011;10675;47.976;7.824;2022-12-10T08:25:32;13.47;;;7.20;;
21032;SDS011;10675;47.976;7.824;2022-12-10T08:27:58;13.63;;;7.47;;
21032;SDS011;10675;47.976;7.824;2022-12-10T08:30:27;16.40;;;7.93;;
21032;SDS011;10675;47.976;7.824;2022-12-10T08:32:53;14.43;;;8.57;;
21032;SDS011;10675;47.976;7.824;2022-12-10T08:35:19;15.30;;;7.53;;
21032;SDS011;10675;47.976;7.824;2022-12-10T08:37:45;17.43;;;7.97;;
21032;SDS011;10675;47.976;7.824;2022-12-10T08:40:11;17.33;;;8.03;;
21032;SDS011;10675;47.976;7.824;2022-12-10T08:42:36;13.67;;;7.67;;
21032;SDS011;10675;47.976;7.824;2022-12-10T08:45:02;14.20;;;7.53;;
21032;SDS011;10675;47.976;7.824;2022-12-10T08:47:28;16.10;;;7.70;;
21032;SDS011;10675;47.976;7.824;2022-12-10T08:49:53;15.03;;;8.20;;
21032;SDS011;10675;47.976;7.824;2022-12-10T08:52:19;18.50;;;8.13;;
21032;SDS011;10675;47.976;7.824;2022-12-10T08:54:44;22.67;;;9.63;;
21032;SDS011;10675;47.976;7.824;2022-12-10T08:57:10;14.70;;;8.10;;
21032;SDS011;10675;47.976;7.824;2022-12-10T08:59:35;14.60;;;8.03;;
21032;SDS011;10675;47.976;7.824;2022-12-10T09:02:01;18.10;;;9.27;;
21032;SDS011;10675;47.976;7.824;2022-12-10T09:04:26;20.83;;;9.33;;
21032;SDS011;10675;47.976;7.824;2022-12-10T09:06:52;16.90;;;8.97;;
21032;SDS011;10675;47.976;7.824;2022-12-10T09:09:17;17.97;;;9.07;;
21032;SDS011;10675;47.976;7.824;2022-12-10T09:11:43;12.90;;;7.60;;
21032;SDS011;10675;47.976;7.824;2022-12-10T09:14:10;19.70;;;8.83;;
21032;SDS011;10675;47.976;7.824;2022-12-10T09:16:36;13.57;;;7.43;;
21032;SDS011;10675;47.976;7.824;2022-12-10T09:19:04;18.13;;;8.60;;
21032;SDS011;10675;47.976;7.824;2022-12-10T09:21:31;19.67;;;9.00;;
21032;SDS011;10675;47.976;7.824;2022-12-10T09:23:57;19.03;;;9.17;;
21032;SDS011;10675;47.976;7.824;2022-12-10T09:26:23;22.63;;;9.10;;
21032;SDS011;10675;47.976;7.824;2022-12-10T09:28:49;14.90;;;8.60;;
21032;SDS011;10675;47.976;7.824;2022-12-10T09:31:16;19.03;;;9.80;;
21032;SDS011;10675;47.976;7.824;2022-12-10T09:33:43;21.97;;;10.87;;
21032;SDS011;10675;47.976;7.824;2022-12-10T09:36:09;17.70;;;8.73;;
21032;SDS011;10675;47.976;7.824;2022-12-10T09:38:37;23.13;;;9.43;;
21032;SDS011;10675;47.976;7.824;2022-12-10T09:41:06;26.93;;;11.00;;
21032;SDS011;10675;47.976;7.824;2022-12-10T09:43:50;25.53;;;10.40;;
21032;SDS011;10675;47.976;7.824;2022-12-10T09:46:52;24.23;;;10.03;;
21032;SDS011;10675;47.976;7.824;2022-12-10T09:49:32;24.83;;;9.90;;
21032;SDS011;10675;47.976;7.824;2022-12-10T09:52:09;24.20;;;10.97;;
21032;SDS011;10675;47.976;7.824;2022-12-10T09:54:43;21.27;;;9.73;;
21032;SDS011;10675;47.976;7.824;2022-12-10T09:57:24;23.03;;;10.13;;
21032;SDS011;10675;47.976;7.824;2022-12-10T09:59:56;25.33;;;10.77;;
21032;SDS011;10675;47.976;7.824;2022-12-10T10:02:28;28.37;;;10.40;;
21032;SDS011;10675;47.976;7.824;2022-12-10T10:07:34;25.10;;;10.80;;
21032;SDS011;10675;47.976;7.824;2022-12-10T10:10:04;26.60;;;10.77;;
21032;SDS011;10675;47.976;7.824;2022-12-10T10:12:32;26.83;;;10.53;;
21032;SDS011;10675;47.976;7.824;2022-12-10T10:14:59;23.67;;;9.93;;
21032;SDS011;10675;47.976;7.824;2022-12-10T10:17:41;24.53;;;10.80;;
21032;SDS011;10675;47.976;7.824;2022-12-10T10:20:11;23.03;;;10.17;;
21032;SDS011;10675;47.976;7.824;2022-12-10T10:22:37;26.23;;;10.80;;
21032;SDS011;10675;47.976;7.824;2022-12-10T10:25:04;23.67;;;10.13;;
21032;SDS011;10675;47.976;7.824;2022-12-10T10:27:31;21.40;;;10.50;;
21032;SDS011;10675;47.976;7.824;2022-12-10T10:30:00;23.00;;;10.33;;
21032;SDS011;10675;47.976;7.824;2022-12-10T10:35:05;26.57;;;10.90;;
21032;SDS011;10675;47.976;7.824;2022-12-10T10:40:00;25.50;;;11.10;;
21032;SDS011;10675;47.976;7.824;2022-12-10T10:42:36;21.17;;;10.30;;
21032;SDS011;10675;47.976;7.824;2022-12-10T10:45:04;29.60;;;11.63;;
21032;SDS011;10675;47.976;7.824;2022-12-10T10:47:52;18.10;;;8.97;;
21032;SDS011;10675;47.976;7.824;2022-12-10T10:50:37;21.57;;;9.47;;
21032;SDS011;10675;47.976;7.824;2022-12-10T10:58:20;19.53;;;9.17;;
21032;SDS011;10675;47.976;7.824;2022-12-10T11:01:01;18.97;;;9.10;;
21032;SDS011;10675;47.976;7.824;2022-12-10T11:03:30;24.60;;;10.73;;
21032;SDS011;10675;47.976;7.824;2022-12-10T11:05:58;28.27;;;13.50;;
21032;SDS011;10675;47.976;7.824;2022-12-10T11:08:25;22.43;;;11.70;;
21032;SDS011;10675;47.976;7.824;2022-12-10T11:11:02;23.27;;;9.83;;
21032;SDS011;10675;47.976;7.824;2022-12-10T11:13:36;20.23;;;9.93;;
21032;SDS011;10675;47.976;7.824;2022-12-10T11:18:54;22.60;;;8.80;;
21032;SDS011;10675;47.976;7.824;2022-12-10T11:21:27;21.53;;;10.13;;
21032;SDS011;10675;47.976;7.824;2022-12-10T11:23:55;22.17;;;10.23;;
21032;SDS011;10675;47.976;7.824;2022-12-10T11:29:01;24.30;;;10.00;;
21032;SDS011;10675;47.976;7.824;2022-12-10T11:34:17;20.93;;;9.90;;
21032;SDS011;10675;47.976;7.824;2022-12-10T11:36:56;23.77;;;9.57;;
21032;SDS011;10675;47.976;7.824;2022-12-10T11:39:40;23.20;;;9.93;;
21032;SDS011;10675;47.976;7.824;2022-12-10T11:50:27;18.17;;;9.57;;
21032;SDS011;10675;47.976;7.824;2022-12-10T11:55:48;20.60;;;9.93;;
21032;SDS011;10675;47.976;7.824;2022-12-10T12:03:44;24.83;;;11.53;;
21032;SDS011;10675;47.976;7.824;2022-12-10T12:14:22;20.77;;;9.10;;
21032;SDS011;10675;47.976;7.824;2022-12-10T12:19:37;19.23;;;8.57;;
21032;SDS011;10675;47.976;7.824;2022-12-10T12:22:13;23.47;;;10.60;;
21032;SDS011;10675;47.976;7.824;2022-12-10T12:25:03;23.50;;;9.57;;
21032;SDS011;10675;47.976;7.824;2022-12-10T12:27:40;22.87;;;9.47;;
21032;SDS011;10675;47.976;7.824;2022-12-10T12:32:54;22.40;;;10.30;;
21032;SDS011;10675;47.976;7.824;2022-12-10T12:35:38;21.27;;;10.20;;
21032;SDS011;10675;47.976;7.824;2022-12-10T12:40:52;22.97;;;10.10;;
21032;SDS011;10675;47.976;7.824;2022-12-10T12:43:28;19.23;;;9.50;;
21032;SDS011;10675;47.976;7.824;2022-12-10T12:45:56;21.03;;;10.63;;
21032;SDS011;10675;47.976;7.824;2022-12-10T12:51:40;23.97;;;10.70;;
21032;SDS011;10675;47.976;7.824;2022-12-10T12:54:01;21.47;;;9.70;;
21032;SDS011;10675;47.976;7.824;2022-12-10T13:01:43;18.27;;;8.87;;
21032;SDS011;10675;47.976;7.824;2022-12-10T13:04:16;22.43;;;8.87;;
21032;SDS011;10675;47.976;7.824;2022-12-10T13:06:42;20.50;;;9.97;;
21032;SDS011;10675;47.976;7.824;2022-12-10T13:09:27;17.70;;;8.87;;
21032;SDS011;10675;47.976;7.824;2022-12-10T13:14:31;20.70;;;9.57;;
21032;SDS011;10675;47.976;7.824;2022-12-10T13:19:40;19.00;;;8.83;;
21032;SDS011;10675;47.976;7.824;2022-12-10T13:22:10;20.73;;;9.50;;
21032;SDS011;10675;47.976;7.824;2022-12-10T13:25:05;20.47;;;8.83;;
21032;SDS011;10675;47.976;7.824;2022-12-10T13:27:35;20.27;;;8.90;;
21032;SDS011;10675;47.976;7.824;2022-12-10T13:30:03;18.80;;;8.67;;
21032;SDS011;10675;47.976;7.824;2022-12-10T13:48:58;23.83;;;9.10;;
21032;SDS011;10675;47.976;7.824;2022-12-10T13:54:08;19.33;;;8.47;;
21032;SDS011;10675;47.976;7.824;2022-12-10T14:01:54;17.60;;;9.37;;
21032;SDS011;10675;47.976;7.824;2022-12-10T14:07:15;19.53;;;8.07;;
21032;SDS011;10675;47.976;7.824;2022-12-10T14:09:45;18.57;;;8.03;;
21032;SDS011;10675;47.976;7.824;2022-12-10T14:12:27;19.47;;;9.57;;
21032;SDS011;10675;47.976;7.824;2022-12-10T14:14:57;15.63;;;8.47;;
21032;SDS011;10675;47.976;7.824;2022-12-10T14:17:40;21.17;;;8.63;;
21032;SDS011;10675;47.976;7.824;2022-12-10T14:20:08;17.10;;;7.83;;
21032;SDS011;10675;47.976;7.824;2022-12-10T14:22:50;18.63;;;8.73;;
21032;SDS011;10675;47.976;7.824;2022-12-10T14:25:21;18.63;;;8.70;;
21032;SDS011;10675;47.976;7.824;2022-12-10T14:27:51;19.77;;;8.77;;
21032;SDS011;10675;47.976;7.824;2022-12-10T14:30:19;15.77;;;7.93;;
21032;SDS011;10675;47.976;7.824;2022-12-10T14:32:46;20.53;;;8.50;;
21032;SDS011;10675;47.976;7.824;2022-12-10T14:35:14;18.60;;;9.83;;
21032;SDS011;10675;47.976;7.824;2022-12-10T14:37:45;22.97;;;10.37;;
21032;SDS011;10675;47.976;7.824;2022-12-10T14:40:26;16.63;;;9.20;;
21032;SDS011;10675;47.976;7.824;2022-12-10T14:43:09;24.50;;;9.67;;
21032;SDS011;10675;47.976;7.824;2022-12-10T14:45:52;21.30;;;9.77;;
21032;SDS011;10675;47.976;7.824;2022-12-10T14:48:21;19.33;;;9.57;;
21032;SDS011;10675;47.976;7.824;2022-12-10T14:50:48;16.33;;;8.20;;
21032;SDS011;10675;47.976;7.824;2022-12-10T14:53:23;19.90;;;10.03;;
21032;SDS011;10675;47.976;7.824;2022-12-10T14:55:53;22.17;;;9.30;;
21032;SDS011;10675;47.976;7.824;2022-12-10T15:01:02;23.17;;;9.83;;
21032;SDS011;10675;47.976;7.824;2022-12-10T15:03:29;17.17;;;9.43;;
21032;SDS011;10675;47.976;7.824;2022-12-10T15:05:59;15.90;;;9.10;;
21032;SDS011;10675;47.976;7.824;2022-12-10T15:08:27;19.27;;;9.83;;
21032;SDS011;10675;47.976;7.824;2022-12-10T15:10:55;18.43;;;9.33;;
21032;SDS011;10675;47.976;7.824;2022-12-10T15:13:39;20.60;;;9.53;;
21032;SDS011;10675;47.976;7.824;2022-12-10T15:16:13;15.20;;;8.73;;
21032;SDS011;10675;47.976;7.824;2022-12-10T15:18:41;22.90;;;9.13;;
21032;SDS011;10675;47.976;7.824;2022-12-10T15:21:21;21.07;;;9.83;;
21032;SDS011;10675;47.976;7.824;2022-12-10T15:23:48;20.40;;;10.17;;
21032;SDS011;10675;47.976;7.824;2022-12-10T15:26:19;20.30;;;8.70;;
21032;SDS011;10675;47.976;7.824;2022-12-10T15:28:52;17.90;;;8.90;;
21032;SDS011;10675;47.976;7.824;2022-12-10T15:31:38;16.13;;;7.90;;
21032;SDS011;10675;47.976;7.824;2022-12-10T15:34:10;16.67;;;8.97;;
21032;SDS011;10675;47.976;7.824;2022-12-10T15:36:39;19.77;;;9.20;;
21032;SDS011;10675;47.976;7.824;2022-12-10T15:47:01;16.07;;;9.03;;
21032;SDS011;10675;47.976;7.824;2022-12-10T15:49:44;22.37;;;9.17;;
21032;SDS011;10675;47.976;7.824;2022-12-10T15:52:14;17.47;;;8.40;;
21032;SDS011;10675;47.976;7.824;2022-12-10T15:54:42;20.40;;;9.43;;
21032;SDS011;10675;47.976;7.824;2022-12-10T15:57:13;19.40;;;9.17;;
21032;SDS011;10675;47.976;7.824;2022-12-10T15:59:40;17.73;;;9.00;;
21032;SDS011;10675;47.976;7.824;2022-12-10T16:02:49;24.92;;;14.32;;
21032;SDS011;10675;47.976;7.824;2022-12-10T16:05:02;19.03;;;9.73;;
21032;SDS011;10675;47.976;7.824;2022-12-10T16:07:34;23.03;;;10.77;;
21032;SDS011;10675;47.976;7.824;2022-12-10T16:10:00;20.57;;;9.90;;
21032;SDS011;10675;47.976;7.824;2022-12-10T16:12:25;20.80;;;9.80;;
21032;SDS011;10675;47.976;7.824;2022-12-10T16:14:52;16.17;;;9.03;;
21032;SDS011;10675;47.976;7.824;2022-12-10T16:17:24;19.77;;;9.00;;
21032;SDS011;10675;47.976;7.824;2022-12-10T16:19:51;16.87;;;8.50;;
21032;SDS011;10675;47.976;7.824;2022-12-10T16:22:18;20.43;;;9.20;;
21032;SDS011;10675;47.976;7.824;2022-12-10T16:24:44;23.70;;;11.07;;
21032;SDS011;10675;47.976;7.824;2022-12-10T16:27:12;15.37;;;7.97;;
21032;SDS011;10675;47.976;7.824;2022-12-10T16:29:39;17.63;;;8.53;;
21032;SDS011;10675;47.976;7.824;2022-12-10T16:32:07;18.70;;;8.40;;
21032;SDS011;10675;47.976;7.824;2022-12-10T16:34:37;16.40;;;8.17;;
21032;SDS011;10675;47.976;7.824;2022-12-10T16:37:03;22.03;;;9.23;;
21032;SDS011;10675;47.976;7.824;2022-12-10T16:39:30;18.97;;;8.80;;
21032;SDS011;10675;47.976;7.824;2022-12-10T16:41:56;21.13;;;8.47;;
21032;SDS011;10675;47.976;7.824;2022-12-10T16:44:21;15.00;;;7.77;;
21032;SDS011;10675;47.976;7.824;2022-12-10T16:46:47;17.97;;;8.43;;
21032;SDS011;10675;47.976;7.824;2022-12-10T16:49:12;17.10;;;8.73;;
21032;SDS011;10675;47.976;7.824;2022-12-10T16:51:38;17.30;;;8.57;;